createdAt,value
2019-02-27T00:01:02.313Z,2.43
2019-02-27T00:03:31.407Z,2.34
2019-02-27T00:06:00.297Z,2.40
2019-02-27T00:08:29.388Z,2.41
2019-02-27T00:10:58.984Z,2.38
2019-02-27T00:13:28.460Z,2.32
2019-02-27T00:15:57.766Z,2.36
2019-02-27T00:18:26.675Z,2.28
2019-02-27T00:20:55.715Z,2.37
2019-02-27T00:23:25.188Z,2.33
2019-02-27T00:25:54.486Z,2.32
2019-02-27T00:28:23.977Z,2.21
2019-02-27T00:30:54.046Z,2.18
2019-02-27T00:33:26.099Z,2.13
2019-02-27T00:35:52.559Z,2.16
2019-02-27T00:38:22.770Z,2.02
2019-02-27T00:40:50.648Z,2.02
2019-02-27T00:43:19.872Z,2.01
2019-02-27T00:45:48.930Z,1.90
2019-02-27T00:48:18.542Z,1.87
2019-02-27T00:50:47.563Z,1.80
2019-02-27T00:53:16.996Z,1.79
2019-02-27T00:55:45.921Z,1.84
2019-02-27T00:58:15.012Z,1.77
2019-02-27T01:00:44.029Z,1.73
2019-02-27T01:03:13.283Z,1.64
2019-02-27T01:05:42.200Z,1.64
2019-02-27T01:08:11.203Z,1.54
2019-02-27T01:10:42.782Z,1.38
2019-02-27T01:13:10.831Z,1.51
2019-02-27T01:15:41.763Z,1.32
2019-02-27T01:18:09.635Z,1.16
2019-02-27T01:20:39.135Z,1.08
2019-02-27T01:23:10.905Z,1.12
2019-02-27T01:25:37.696Z,1.04
2019-02-27T01:28:10.812Z,1.10
2019-02-27T01:30:35.932Z,1.07
2019-02-27T01:33:05.351Z,1.09
2019-02-27T01:35:35.133Z,1.08
2019-02-27T01:38:05.319Z,1.15
2019-02-27T01:40:33.735Z,1.14
2019-02-27T01:43:05.562Z,1.06
2019-02-27T01:45:32.554Z,1.08
2019-02-27T01:48:02.125Z,1.13
2019-02-27T01:50:33.406Z,1.13
2019-02-27T01:53:07.048Z,1.07
2019-02-27T01:55:31.883Z,1.20
2019-02-27T01:58:01.014Z,1.22
2019-02-27T02:00:30.300Z,1.30
2019-02-27T02:02:59.479Z,1.27
2019-02-27T02:05:28.683Z,1.36
2019-02-27T02:07:57.819Z,1.38
2019-02-27T02:10:28.290Z,1.41
2019-02-27T02:13:14.822Z,1.49
2019-02-27T02:16:18.791Z,1.56
2019-02-27T02:20:06.564Z,1.60
2019-02-27T02:23:15.113Z,1.57
2019-02-27T02:26:32.132Z,1.62
2019-02-27T02:30:02.373Z,1.60
2019-02-27T02:32:42.349Z,1.53
2019-02-27T02:35:52.385Z,1.56
2019-02-27T02:39:44.817Z,1.63
2019-02-27T02:43:30.211Z,1.65
2019-02-27T02:46:10.704Z,1.67
2019-02-27T02:48:49.086Z,1.64
2019-02-27T02:51:36.268Z,1.68
2019-02-27T02:55:20.972Z,1.71
2019-02-27T02:58:07.975Z,1.74
2019-02-27T03:00:40.424Z,1.67
2019-02-27T03:03:26.270Z,1.65
2019-02-27T03:08:19.944Z,1.64
2019-02-27T03:11:07.201Z,1.71
2019-02-27T03:14:02.060Z,1.70
2019-02-27T03:16:45.150Z,1.76
2019-02-27T03:19:30.062Z,1.77
2019-02-27T03:22:11.184Z,1.79
2019-02-27T03:25:05.433Z,1.79
2019-02-27T03:27:57.688Z,1.92
2019-02-27T03:32:41.278Z,1.92
2019-02-27T03:35:29.509Z,1.86
2019-02-27T03:39:18.528Z,1.91
2019-02-27T03:42:00.142Z,1.91
2019-02-27T03:45:41.205Z,2.01
2019-02-27T03:48:20.505Z,1.96
2019-02-27T03:50:57.089Z,2.01
2019-02-27T03:54:09.724Z,2.05
2019-02-27T03:57:00.938Z,1.99
2019-02-27T04:00:49.794Z,1.92
2019-02-27T04:04:32.533Z,2.01
2019-02-27T04:08:10.988Z,2.04
2019-02-27T04:10:39.899Z,2.06
2019-02-27T04:13:09.104Z,2.06
2019-02-27T04:15:38.562Z,2.15
2019-02-27T04:18:06.100Z,2.16
2019-02-27T04:20:35.287Z,2.16
2019-02-27T04:23:04.852Z,2.16
2019-02-27T04:25:33.868Z,2.11
2019-02-27T04:28:02.856Z,2.07
2019-02-27T04:30:31.824Z,2.06
2019-02-27T04:33:00.986Z,2.03
2019-02-27T04:35:31.105Z,2.04
2019-02-27T04:38:00.452Z,1.99
2019-02-27T04:40:29.947Z,1.94
2019-02-27T04:42:59.280Z,1.78
2019-02-27T04:45:28.842Z,1.67
2019-02-27T04:47:58.492Z,1.57
2019-02-27T04:50:27.223Z,1.67
2019-02-27T04:52:58.020Z,1.72
2019-02-27T04:55:25.919Z,1.70
2019-02-27T04:57:54.793Z,1.56
2019-02-27T05:00:26.068Z,1.65
2019-02-27T05:02:54.062Z,1.71
2019-02-27T05:05:22.611Z,1.69
2019-02-27T05:07:54.058Z,1.61
2019-02-27T05:10:20.904Z,1.55
2019-02-27T05:12:50.756Z,1.60
2019-02-27T05:15:20.236Z,1.59
2019-02-27T05:17:49.525Z,1.52
2019-02-27T05:20:19.316Z,1.55
2019-02-27T05:22:48.476Z,1.45
2019-02-27T05:25:17.744Z,1.49
2019-02-27T05:27:47.143Z,1.46
2019-02-27T05:30:16.383Z,1.39
2019-02-27T05:32:45.844Z,1.43
2019-02-27T05:35:14.819Z,1.40
2019-02-27T05:37:44.138Z,1.29
2019-02-27T05:40:13.547Z,1.19
2019-02-27T05:42:43.315Z,1.33
2019-02-27T05:45:13.089Z,1.41
2019-02-27T05:47:45.812Z,1.45
2019-02-27T05:50:12.468Z,1.51
2019-02-27T05:52:41.832Z,1.75
2019-02-27T05:55:11.083Z,1.75
2019-02-27T05:57:41.639Z,1.66
2019-02-27T06:00:13.912Z,1.72
2019-02-27T06:02:44.970Z,1.70
2019-02-27T06:05:12.164Z,1.69
2019-02-27T06:07:41.368Z,1.61
2019-02-27T06:10:12.314Z,1.76
2019-02-27T06:12:41.488Z,1.87
2019-02-27T06:15:13.133Z,1.88
2019-02-27T06:17:43.558Z,1.84
2019-02-27T06:20:12.060Z,1.87
2019-02-27T06:22:41.250Z,1.89
2019-02-27T06:25:12.724Z,1.84
2019-02-27T06:27:41.827Z,1.84
2019-02-27T06:30:13.888Z,1.79
2019-02-27T06:32:43.063Z,1.78
2019-02-27T06:35:12.381Z,1.78
2019-02-27T06:37:41.526Z,1.82
2019-02-27T06:40:11.879Z,1.78
2019-02-27T06:42:41.421Z,1.82
2019-02-27T06:45:12.654Z,1.81
2019-02-27T06:47:40.296Z,1.94
2019-02-27T06:50:11.148Z,1.93
2019-02-27T06:52:42.485Z,2.00
2019-02-27T06:55:09.960Z,2.02
2019-02-27T06:57:41.303Z,2.15
2019-02-27T07:00:12.305Z,2.21
2019-02-27T07:02:41.159Z,2.13
2019-02-27T07:05:13.331Z,2.25
2019-02-27T07:07:39.939Z,2.25
2019-02-27T07:10:09.855Z,2.25
2019-02-27T07:12:40.011Z,2.37
2019-02-27T07:15:12.817Z,2.33
2019-02-27T07:17:40.653Z,2.32
2019-02-27T07:20:10.512Z,2.25
2019-02-27T07:22:39.558Z,2.25
2019-02-27T07:25:09.336Z,2.24
2019-02-27T07:27:38.670Z,2.35
2019-02-27T07:30:10.026Z,2.30
2019-02-27T07:32:40.019Z,2.36
2019-02-27T07:35:09.306Z,2.30
2019-02-27T07:37:38.336Z,2.30
2019-02-27T07:40:09.418Z,2.28
2019-02-27T07:42:38.572Z,2.39
2019-02-27T07:45:10.639Z,2.39
2019-02-27T07:47:37.307Z,2.44
2019-02-27T07:50:08.720Z,2.56
2019-02-27T07:52:37.211Z,2.64
2019-02-27T07:55:18.438Z,2.55
2019-02-27T07:57:35.899Z,2.46
2019-02-27T08:00:05.132Z,2.50
2019-02-27T08:02:36.177Z,2.77
2019-02-27T08:05:03.570Z,2.86
2019-02-27T08:07:32.701Z,2.78
2019-02-27T08:10:04.616Z,2.77
2019-02-27T08:12:30.931Z,2.60
2019-02-27T08:15:00.234Z,2.59
2019-02-27T08:17:29.482Z,2.57
2019-02-27T08:19:58.935Z,2.58
2019-02-27T08:22:28.108Z,2.74
2019-02-27T08:24:57.368Z,2.63
2019-02-27T08:27:26.774Z,2.87
2019-02-27T08:29:55.800Z,2.84
2019-02-27T08:32:25.281Z,2.79
2019-02-27T08:34:54.841Z,2.68
2019-02-27T08:37:24.210Z,2.70
2019-02-27T08:39:54.401Z,2.54
2019-02-27T08:42:23.523Z,2.74
2019-02-27T08:44:52.719Z,2.77
2019-02-27T08:47:21.584Z,2.79
2019-02-27T08:49:50.849Z,2.82
2019-02-27T08:52:20.443Z,2.80
2019-02-27T08:54:49.436Z,2.73
2019-02-27T08:57:18.750Z,2.86
2019-02-27T08:59:48.006Z,2.88
2019-02-27T09:02:17.187Z,2.92
2019-02-27T09:04:46.191Z,2.87
2019-02-27T09:07:15.995Z,2.97
2019-02-27T09:09:44.987Z,3.12
2019-02-27T09:12:14.056Z,3.04
2019-02-27T09:14:43.129Z,3.16
2019-02-27T09:17:12.424Z,3.22
2019-02-27T09:19:45.245Z,3.20
2019-02-27T09:22:10.399Z,3.33
2019-02-27T09:24:39.321Z,3.27
2019-02-27T09:27:08.381Z,3.32
2019-02-27T09:29:37.373Z,3.47
2019-02-27T09:32:09.218Z,3.58
2019-02-27T09:34:36.227Z,3.81
2019-02-27T09:37:05.211Z,3.66
2019-02-27T09:39:35.199Z,3.62
2019-02-27T09:42:04.239Z,3.48
2019-02-27T09:44:36.405Z,3.66
2019-02-27T09:47:02.923Z,3.80
2019-02-27T09:49:31.927Z,3.97
2019-02-27T09:52:00.881Z,3.70
2019-02-27T09:54:30.071Z,3.66
2019-02-27T09:57:02.117Z,3.67
2019-02-27T09:59:28.673Z,3.68
2019-02-27T10:01:57.863Z,3.71
2019-02-27T10:04:28.847Z,3.82
2019-02-27T10:06:56.435Z,3.82
2019-02-27T10:09:25.468Z,3.97
2019-02-27T10:11:54.698Z,4.02
2019-02-27T10:14:24.270Z,3.80
2019-02-27T10:16:54.280Z,3.76
2019-02-27T10:19:26.875Z,3.54
2019-02-27T10:21:53.612Z,3.65
2019-02-27T10:24:22.587Z,3.66
2019-02-27T10:26:53.510Z,3.61
2019-02-27T10:29:21.303Z,3.63
2019-02-27T10:31:50.228Z,3.80
2019-02-27T10:34:19.343Z,3.80
2019-02-27T10:36:49.019Z,3.96
2019-02-27T10:39:18.082Z,3.93
2019-02-27T10:41:49.712Z,3.96
2019-02-27T10:44:16.409Z,3.87
2019-02-27T10:46:45.589Z,3.85
2019-02-27T10:49:14.515Z,3.82
2019-02-27T10:51:44.440Z,3.70
2019-02-27T10:54:13.212Z,3.78
2019-02-27T10:56:42.202Z,3.70
2019-02-27T10:59:11.671Z,3.89
2019-02-27T11:01:40.836Z,4.05
2019-02-27T11:04:10.271Z,4.04
2019-02-27T11:06:39.338Z,3.98
2019-02-27T11:09:19.200Z,3.97
2019-02-27T11:11:48.778Z,3.98
2019-02-27T11:14:18.066Z,3.93
2019-02-27T11:16:47.300Z,3.83
2019-02-27T11:19:16.768Z,3.94
2019-02-27T11:21:45.764Z,4.17
2019-02-27T11:24:17.312Z,4.18
2019-02-27T11:26:44.327Z,4.13
2019-02-27T11:29:13.453Z,4.06
2019-02-27T11:31:45.441Z,4.04
2019-02-27T11:34:12.038Z,4.14
2019-02-27T11:36:41.240Z,3.99
2019-02-27T11:39:10.590Z,4.02
2019-02-27T11:41:39.714Z,3.92
2019-02-27T11:44:08.813Z,3.93
2019-02-27T11:46:38.207Z,3.99
2019-02-27T11:49:07.116Z,4.09
2019-02-27T11:51:36.041Z,4.03
2019-02-27T11:54:08.358Z,4.08
2019-02-27T11:56:34.432Z,4.06
2019-02-27T11:59:04.498Z,4.13
2019-02-27T12:01:33.755Z,3.98
2019-02-27T12:04:03.878Z,3.99
2019-02-27T12:06:33.477Z,4.07
2019-02-27T12:09:03.110Z,3.86
2019-02-27T12:11:32.371Z,4.07
2019-02-27T12:14:01.447Z,4.12
2019-02-27T12:16:30.604Z,4.17
2019-02-27T12:18:59.679Z,4.24
2019-02-27T12:21:29.045Z,4.29
2019-02-27T12:23:58.482Z,4.20
2019-02-27T12:26:27.552Z,4.16
2019-02-27T12:28:56.584Z,4.23
2019-02-27T12:31:26.552Z,4.33
2019-02-27T12:33:55.783Z,4.23
2019-02-27T12:36:24.854Z,4.31
2019-02-27T12:38:54.032Z,4.38
2019-02-27T12:41:24.200Z,4.39
2019-02-27T12:43:53.422Z,4.33
2019-02-27T12:46:22.564Z,4.43
2019-02-27T12:48:51.578Z,4.50
2019-02-27T12:51:21.116Z,4.44
2019-02-27T12:53:54.397Z,4.51
2019-02-27T12:56:18.844Z,4.38
2019-02-27T12:58:48.073Z,4.17
2019-02-27T13:01:17.089Z,3.99
2019-02-27T13:03:46.339Z,4.00
2019-02-27T13:06:15.437Z,4.04
2019-02-27T13:08:45.199Z,4.14
2019-02-27T13:11:15.201Z,4.27
2019-02-27T13:13:44.896Z,4.07
2019-02-27T13:16:15.008Z,4.14
2019-02-27T13:18:43.115Z,4.25
2019-02-27T13:21:12.107Z,4.12
2019-02-27T13:23:42.362Z,4.11
2019-02-27T13:26:11.217Z,4.12
2019-02-27T13:28:40.387Z,4.12
2019-02-27T13:31:09.567Z,4.08
2019-02-27T13:33:38.972Z,4.06
2019-02-27T13:36:07.749Z,4.04
2019-02-27T13:38:37.041Z,4.14
2019-02-27T13:41:07.700Z,3.97
2019-02-27T13:43:35.298Z,4.12
2019-02-27T13:46:05.140Z,4.25
2019-02-27T13:48:34.079Z,4.35
2019-02-27T13:51:03.175Z,4.23
2019-02-27T13:53:32.293Z,4.23
2019-02-27T13:56:01.293Z,4.18
2019-02-27T13:58:35.683Z,4.22
2019-02-27T14:01:00.711Z,4.27
2019-02-27T14:03:29.986Z,4.39
2019-02-27T14:05:59.072Z,4.33
2019-02-27T14:08:31.710Z,4.38
2019-02-27T14:10:57.719Z,4.39
2019-02-27T14:13:27.278Z,4.37
2019-02-27T14:15:58.059Z,4.05
2019-02-27T14:18:26.940Z,4.24
2019-02-27T14:20:59.007Z,4.36
2019-02-27T14:23:26.005Z,4.45
2019-02-27T14:25:55.094Z,4.53
2019-02-27T14:28:24.108Z,4.36
2019-02-27T14:30:54.164Z,4.28
2019-02-27T14:33:23.162Z,4.31
2019-02-27T14:35:52.538Z,4.31
2019-02-27T14:38:22.938Z,4.41
2019-02-27T14:40:51.242Z,4.62
2019-02-27T14:43:20.369Z,4.59
2019-02-27T14:45:50.824Z,4.56
2019-02-27T14:48:21.625Z,4.50
2019-02-27T14:50:47.809Z,4.44
2019-02-27T14:53:19.782Z,4.42
2019-02-27T14:55:46.935Z,4.44
2019-02-27T14:58:16.091Z,4.31
2019-02-27T15:00:45.245Z,4.44
2019-02-27T15:03:14.362Z,4.38
2019-02-27T15:05:45.274Z,4.38
2019-02-27T15:08:13.643Z,4.41
2019-02-27T15:10:43.813Z,4.42
2019-02-27T15:13:13.028Z,4.43
2019-02-27T15:15:43.745Z,4.37
2019-02-27T15:18:11.299Z,4.34
2019-02-27T15:20:41.204Z,4.37
2019-02-27T15:23:09.665Z,4.38
2019-02-27T15:25:42.199Z,4.16
2019-02-27T15:28:07.983Z,4.01
2019-02-27T15:30:36.959Z,3.89
2019-02-27T15:33:06.840Z,3.86
2019-02-27T15:35:36.523Z,3.83
2019-02-27T15:38:05.707Z,3.86
2019-02-27T15:40:35.407Z,3.89
2019-02-27T15:43:10.999Z,3.93
2019-02-27T15:45:33.623Z,4.10
2019-02-27T15:48:06.647Z,3.92
2019-02-27T15:50:32.129Z,3.85
2019-02-27T15:53:01.431Z,3.88
2019-02-27T15:55:34.229Z,3.82
2019-02-27T15:58:00.816Z,3.78
2019-02-27T16:00:30.228Z,3.73
2019-02-27T16:02:59.637Z,3.69
2019-02-27T16:05:31.383Z,3.64
2019-02-27T16:07:58.479Z,3.60
2019-02-27T16:10:27.695Z,3.61
2019-02-27T16:12:59.986Z,3.57
2019-02-27T16:15:26.206Z,3.58
2019-02-27T16:17:55.427Z,3.54
2019-02-27T16:20:24.737Z,3.49
2019-02-27T16:22:53.911Z,3.42
2019-02-27T16:25:23.045Z,3.38
2019-02-27T16:27:52.372Z,3.28
2019-02-27T16:30:24.177Z,3.31
2019-02-27T16:32:53.029Z,3.35
2019-02-27T16:35:21.987Z,3.38
2019-02-27T16:37:56.604Z,3.36
2019-02-27T16:40:21.500Z,3.33
2019-02-27T16:42:50.903Z,3.43
2019-02-27T16:45:22.028Z,3.42
2019-02-27T16:47:54.074Z,3.44
2019-02-27T16:50:24.743Z,3.50
2019-02-27T16:52:52.004Z,3.57
2019-02-27T16:55:22.077Z,3.45
2019-02-27T16:57:56.190Z,3.45
2019-02-27T17:00:22.491Z,3.49
2019-02-27T17:02:52.140Z,3.43
2019-02-27T17:05:21.861Z,3.33
2019-02-27T17:07:51.596Z,3.31
2019-02-27T17:10:23.135Z,3.30
2019-02-27T17:12:52.107Z,3.38
2019-02-27T17:15:21.377Z,3.34
2019-02-27T17:17:53.115Z,3.33
2019-02-27T17:20:19.917Z,3.33
2019-02-27T17:22:49.045Z,3.28
2019-02-27T17:25:18.194Z,3.21
2019-02-27T17:27:50.214Z,3.23
2019-02-27T17:30:25.199Z,3.27
2019-02-27T17:32:55.011Z,3.26
2019-02-27T17:35:25.266Z,3.26
2019-02-27T17:37:54.655Z,3.31
2019-02-27T17:40:24.096Z,3.31
2019-02-27T17:42:54.310Z,3.30
2019-02-27T17:45:23.114Z,3.33
2019-02-27T17:47:52.364Z,3.37
2019-02-27T17:50:21.548Z,3.40
2019-02-27T17:52:50.704Z,3.40
2019-02-27T17:55:20.786Z,3.31
2019-02-27T17:57:50.413Z,3.32
2019-02-27T18:00:28.415Z,3.36
2019-02-27T18:02:55.985Z,3.30
2019-02-27T18:05:25.455Z,3.30
2019-02-27T18:07:54.132Z,3.33
2019-02-27T18:10:22.964Z,3.29
2019-02-27T18:12:52.929Z,3.30
2019-02-27T18:15:21.757Z,3.29
2019-02-27T18:17:51.070Z,3.32
2019-02-27T18:20:24.158Z,3.30
2019-02-27T18:22:50.376Z,3.26
2019-02-27T18:25:19.270Z,3.32
2019-02-27T18:27:48.865Z,3.33
2019-02-27T18:30:18.770Z,3.29
2019-02-27T18:32:48.101Z,3.29
2019-02-27T18:35:17.232Z,3.29
2019-02-27T18:37:46.395Z,3.22
2019-02-27T18:40:15.705Z,3.18
2019-02-27T18:42:44.922Z,3.22
2019-02-27T18:45:16.214Z,3.16
2019-02-27T18:47:45.114Z,3.13
2019-02-27T18:50:14.402Z,3.13
2019-02-27T18:52:44.040Z,3.07
2019-02-27T18:55:13.262Z,2.97
2019-02-27T18:57:45.663Z,2.95
2019-02-27T19:00:15.211Z,2.83
2019-02-27T19:02:44.524Z,2.78
2019-02-27T19:05:13.622Z,2.80
2019-02-27T19:07:42.731Z,2.77
2019-02-27T19:10:12.223Z,2.80
2019-02-27T19:12:42.427Z,2.82
2019-02-27T19:15:13.410Z,2.77
2019-02-27T19:17:42.847Z,2.79
2019-02-27T19:20:13.191Z,2.79
2019-02-27T19:22:43.760Z,2.82
2019-02-27T19:25:13.863Z,2.79
2019-02-27T19:27:41.093Z,2.76
2019-02-27T19:30:12.319Z,2.76
2019-02-27T19:32:41.328Z,2.73
2019-02-27T19:35:11.515Z,2.76
2019-02-27T19:37:40.729Z,2.76
2019-02-27T19:40:11.367Z,2.73
2019-02-27T19:42:48.234Z,2.75
2019-02-27T19:45:17.372Z,2.75
2019-02-27T19:47:49.705Z,2.76
2019-02-27T19:50:16.586Z,2.78
2019-02-27T19:52:46.019Z,2.70
2019-02-27T19:55:16.179Z,2.75
2019-02-27T19:57:45.392Z,2.76
2019-02-27T20:00:16.861Z,2.72
2019-02-27T20:02:45.970Z,2.75
2019-02-27T20:05:16.416Z,2.78
2019-02-27T20:07:44.469Z,2.69
2019-02-27T20:10:13.835Z,2.74
2019-02-27T20:12:43.799Z,2.77
2019-02-27T20:15:13.519Z,2.74
2019-02-27T20:17:43.018Z,2.83
2019-02-27T20:20:13.230Z,2.81
2019-02-27T20:22:42.556Z,2.84
2019-02-27T20:25:12.938Z,2.93
2019-02-27T20:27:42.057Z,2.92
2019-02-27T20:30:14.327Z,2.95
2019-02-27T20:32:43.356Z,2.92
2019-02-27T20:35:12.858Z,2.93
2019-02-27T20:37:42.196Z,2.87
2019-02-27T20:40:11.494Z,2.83
2019-02-27T20:42:40.740Z,2.85
2019-02-27T20:45:12.382Z,2.84
2019-02-27T20:47:41.548Z,2.77
2019-02-27T20:50:13.829Z,2.82
2019-02-27T20:52:43.029Z,2.82
2019-02-27T20:55:12.163Z,2.81
2019-02-27T20:57:42.301Z,2.89
2019-02-27T21:00:12.550Z,2.86
2019-02-27T21:02:41.696Z,2.90
2019-02-27T21:05:11.527Z,2.89
2019-02-27T21:07:40.809Z,2.88
2019-02-27T21:10:13.474Z,2.87
2019-02-27T21:12:53.126Z,2.92
2019-02-27T21:15:12.700Z,2.89
2019-02-27T21:17:42.450Z,2.90
2019-02-27T21:20:12.171Z,2.88
2019-02-27T21:22:41.131Z,2.85
2019-02-27T21:25:12.044Z,2.90
2019-02-27T21:27:40.559Z,2.84
2019-02-27T21:30:17.758Z,2.89
2019-02-27T21:32:42.005Z,2.87
2019-02-27T21:35:11.178Z,2.92
2019-02-27T21:37:44.488Z,2.91
2019-02-27T21:40:10.518Z,2.86
2019-02-27T21:42:39.751Z,2.87
2019-02-27T21:45:10.835Z,2.80
2019-02-27T21:47:39.937Z,2.80
2019-02-27T21:50:09.955Z,2.82
2019-02-27T21:52:39.008Z,2.83
2019-02-27T21:55:12.570Z,2.90
2019-02-27T21:57:40.201Z,2.93
2019-02-27T22:00:11.361Z,2.90
2019-02-27T22:02:38.853Z,2.90
2019-02-27T22:05:08.588Z,2.84
2019-02-27T22:07:38.500Z,2.78
2019-02-27T22:10:08.704Z,2.78
2019-02-27T22:12:37.977Z,2.80
2019-02-27T22:15:08.488Z,2.86
2019-02-27T22:17:37.884Z,2.95
2019-02-27T22:20:07.512Z,2.85
2019-02-27T22:22:41.132Z,2.92
2019-02-27T22:25:06.038Z,2.87
2019-02-27T22:27:35.692Z,2.97
2019-02-27T22:30:05.399Z,2.92
2019-02-27T22:32:35.150Z,2.85
2019-02-27T22:35:04.538Z,2.88
2019-02-27T22:37:35.348Z,2.79
2019-02-27T22:40:07.340Z,2.80
2019-02-27T22:42:34.383Z,2.78
2019-02-27T22:45:04.321Z,2.77
2019-02-27T22:47:32.816Z,2.76
2019-02-27T22:50:06.017Z,2.72
2019-02-27T22:52:31.459Z,2.73
2019-02-27T22:55:00.515Z,2.71
2019-02-27T22:57:29.503Z,2.63
2019-02-27T22:59:58.408Z,2.66
2019-02-27T23:02:27.580Z,2.64
2019-02-27T23:04:56.756Z,2.77
2019-02-27T23:07:26.019Z,2.62
2019-02-27T23:09:57.495Z,2.68
2019-02-27T23:12:25.231Z,2.60
2019-02-27T23:14:54.471Z,2.51
2019-02-27T23:17:23.710Z,2.52
2019-02-27T23:19:52.918Z,2.43
2019-02-27T23:22:22.733Z,2.34
2019-02-27T23:24:51.833Z,2.31
2019-02-27T23:27:20.927Z,2.33
2019-02-27T23:29:50.444Z,2.25
2019-02-27T23:32:19.633Z,2.24
2019-02-27T23:34:49.299Z,2.21
2019-02-27T23:37:18.615Z,2.16
2019-02-27T23:39:47.888Z,2.19
2019-02-27T23:42:17.123Z,2.08
2019-02-27T23:44:46.188Z,2.05
2019-02-27T23:47:15.439Z,2.10
2019-02-27T23:49:44.840Z,2.08
2019-02-27T23:52:14.359Z,2.05
2019-02-27T23:54:43.739Z,2.05
2019-02-27T23:57:13.129Z,2.03
2019-02-27T23:59:41.926Z,1.91
